createdAt,value
2022-08-26T00:00:27.379Z,17.73
2022-08-26T00:01:31.826Z,17.70
2022-08-26T00:02:36.251Z,17.67
2022-08-26T00:03:39.322Z,17.64
2022-08-26T00:04:44.526Z,17.60
2022-08-26T00:05:46.569Z,17.57
2022-08-26T00:06:50.962Z,17.54
2022-08-26T00:07:53.542Z,17.52
2022-08-26T00:08:58.033Z,17.50
2022-08-26T00:09:59.813Z,17.48
2022-08-26T00:11:06.631Z,17.45
2022-08-26T00:12:12.096Z,17.42
2022-08-26T00:13:19.483Z,17.39
2022-08-26T00:14:21.938Z,17.39
2022-08-26T00:15:27.142Z,17.38
2022-08-26T00:16:29.585Z,17.36
2022-08-26T00:17:34.133Z,17.36
2022-08-26T00:18:38.609Z,17.36
2022-08-26T00:19:42.707Z,17.35
2022-08-26T00:20:47.243Z,17.35
2022-08-26T00:21:50.016Z,17.35
2022-08-26T00:22:54.406Z,17.32
2022-08-26T00:23:56.221Z,17.32
2022-08-26T00:25:00.694Z,17.32
2022-08-26T00:26:02.958Z,17.33
2022-08-26T00:27:07.390Z,17.31
2022-08-26T00:28:09.292Z,17.30
2022-08-26T00:29:15.268Z,17.27
2022-08-26T00:30:25.016Z,17.26
2022-08-26T00:31:28.803Z,17.24
2022-08-26T00:32:35.848Z,17.22
2022-08-26T00:33:39.835Z,17.21
2022-08-26T00:34:44.222Z,17.13
2022-08-26T00:35:46.663Z,17.16
2022-08-26T00:36:52.185Z,17.15
2022-08-26T00:37:54.532Z,17.13
2022-08-26T00:38:59.270Z,17.12
2022-08-26T00:40:01.249Z,17.08
2022-08-26T00:41:09.683Z,17.07
2022-08-26T00:42:11.486Z,17.06
2022-08-26T00:43:16.131Z,17.04
2022-08-26T00:44:18.271Z,17.03
2022-08-26T00:45:22.798Z,17.01
2022-08-26T00:46:29.308Z,17.00
2022-08-26T00:47:35.498Z,17.01
2022-08-26T00:48:42.307Z,17.01
2022-08-26T00:49:44.874Z,17.01
2022-08-26T00:50:54.866Z,17.00
2022-08-26T00:51:57.597Z,16.98
2022-08-26T00:53:05.117Z,16.99
2022-08-26T00:54:10.805Z,16.98
2022-08-26T00:55:20.416Z,16.98
2022-08-26T00:56:46.991Z,16.96
2022-08-26T00:57:51.835Z,16.96
2022-08-26T00:58:54.120Z,16.97
2022-08-26T00:59:59.643Z,16.96
2022-08-26T01:01:01.781Z,16.96
2022-08-26T01:02:06.471Z,16.96
2022-08-26T01:03:19.882Z,16.96
2022-08-26T01:04:26.108Z,16.94
2022-08-26T01:05:28.475Z,16.93
2022-08-26T01:06:34.963Z,16.93
2022-08-26T01:07:37.079Z,16.93
2022-08-26T01:08:41.463Z,16.92
2022-08-26T01:09:43.872Z,16.92
2022-08-26T01:10:48.818Z,16.91
2022-08-26T01:11:53.558Z,16.90
2022-08-26T01:12:59.882Z,16.89
2022-08-26T01:14:02.681Z,16.90
2022-08-26T01:15:07.718Z,16.87
2022-08-26T01:16:12.504Z,16.86
2022-08-26T01:17:16.982Z,16.84
2022-08-26T01:18:18.784Z,16.82
2022-08-26T01:19:25.606Z,16.83
2022-08-26T01:20:39.202Z,16.81
2022-08-26T01:21:45.094Z,16.78
2022-08-26T01:22:50.520Z,16.75
2022-08-26T01:23:57.649Z,16.73
2022-08-26T01:25:03.684Z,16.70
2022-08-26T01:26:08.540Z,16.70
2022-08-26T01:27:24.555Z,16.67
2022-08-26T01:28:30.252Z,16.67
2022-08-26T01:29:32.505Z,16.65
2022-08-26T01:30:37.175Z,16.62
2022-08-26T01:31:41.853Z,16.60
2022-08-26T01:32:46.321Z,16.58
2022-08-26T01:33:52.067Z,16.59
2022-08-26T01:34:57.302Z,16.58
2022-08-26T01:36:00.151Z,16.58
2022-08-26T01:37:06.991Z,16.57
2022-08-26T01:38:09.538Z,16.56
2022-08-26T01:39:13.957Z,16.56
2022-08-26T01:40:17.375Z,16.56
2022-08-26T01:41:27.354Z,16.56
2022-08-26T01:42:30.855Z,16.53
2022-08-26T01:43:35.283Z,16.40
2022-08-26T01:44:40.355Z,16.51
2022-08-26T01:45:45.192Z,16.50
2022-08-26T01:46:47.138Z,16.48
2022-08-26T01:47:57.197Z,16.47
2022-08-26T01:49:00.453Z,16.45
2022-08-26T01:50:05.995Z,16.44
2022-08-26T01:51:07.994Z,16.42
2022-08-26T01:52:13.384Z,16.40
2022-08-26T01:53:15.769Z,16.40
2022-08-26T01:54:20.585Z,16.40
2022-08-26T01:55:32.602Z,16.38
2022-08-26T01:56:38.397Z,16.37
2022-08-26T01:57:40.477Z,16.37
2022-08-26T01:58:51.983Z,16.37
2022-08-26T01:59:54.874Z,16.36
2022-08-26T02:00:59.637Z,16.35
2022-08-26T02:02:01.680Z,16.36
2022-08-26T02:03:22.316Z,16.30
2022-08-26T02:04:34.341Z,16.36
2022-08-26T02:05:40.097Z,16.29
2022-08-26T02:06:41.934Z,16.36
2022-08-26T02:07:46.494Z,16.36
2022-08-26T02:08:49.891Z,16.37
2022-08-26T02:09:54.636Z,16.36
2022-08-26T02:10:56.463Z,16.36
2022-08-26T02:12:02.851Z,16.37
2022-08-26T02:13:25.447Z,16.36
2022-08-26T02:14:32.031Z,16.35
2022-08-26T02:15:34.558Z,16.36
2022-08-26T02:16:42.144Z,16.33
2022-08-26T02:17:44.905Z,16.33
2022-08-26T02:18:49.322Z,16.33
2022-08-26T02:19:54.691Z,16.33
2022-08-26T02:20:59.179Z,16.33
2022-08-26T02:22:01.839Z,16.31
2022-08-26T02:23:08.776Z,16.31
2022-08-26T02:24:15.690Z,16.32
2022-08-26T02:25:35.017Z,16.31
2022-08-26T02:26:36.901Z,16.30
2022-08-26T02:27:43.605Z,16.29
2022-08-26T02:28:47.482Z,16.31
2022-08-26T02:29:52.486Z,16.30
2022-08-26T02:30:55.657Z,16.21
2022-08-26T02:32:00.193Z,16.27
2022-08-26T02:33:03.701Z,16.27
2022-08-26T02:34:15.298Z,16.26
2022-08-26T02:35:20.023Z,16.26
2022-08-26T02:36:28.674Z,16.26
2022-08-26T02:37:31.542Z,16.25
2022-08-26T02:38:35.967Z,16.25
2022-08-26T02:39:39.995Z,16.24
2022-08-26T02:40:44.529Z,16.23
2022-08-26T02:41:47.008Z,16.24
2022-08-26T02:42:53.114Z,16.23
2022-08-26T02:43:57.954Z,16.24
2022-08-26T02:45:02.689Z,16.24
2022-08-26T02:46:07.482Z,16.25
2022-08-26T02:47:09.825Z,16.24
2022-08-26T02:48:19.317Z,16.23
2022-08-26T02:49:21.410Z,16.09
2022-08-26T02:50:26.416Z,16.24
2022-08-26T02:51:28.342Z,16.24
2022-08-26T02:52:32.810Z,16.23
2022-08-26T02:53:38.374Z,16.23
2022-08-26T02:54:40.962Z,16.21
2022-08-26T02:55:49.465Z,16.21
2022-08-26T02:56:51.803Z,16.23
2022-08-26T02:57:56.198Z,16.23
2022-08-26T02:58:58.000Z,16.23
2022-08-26T03:00:02.747Z,16.24
2022-08-26T03:01:05.332Z,16.24
2022-08-26T03:02:10.794Z,16.25
2022-08-26T03:03:12.756Z,16.24
2022-08-26T03:04:17.206Z,16.27
2022-08-26T03:05:19.901Z,16.26
2022-08-26T03:06:24.795Z,16.27
2022-08-26T03:07:30.975Z,16.27
2022-08-26T03:08:35.522Z,16.27
2022-08-26T03:09:37.366Z,16.28
2022-08-26T03:10:41.947Z,16.28
2022-08-26T03:11:43.774Z,16.28
2022-08-26T03:12:48.281Z,16.27
2022-08-26T03:13:50.166Z,16.27
2022-08-26T03:14:54.641Z,16.27
2022-08-26T03:15:56.865Z,16.27
2022-08-26T03:17:01.352Z,16.26
2022-08-26T03:18:03.161Z,16.26
2022-08-26T03:19:08.200Z,16.24
2022-08-26T03:20:10.108Z,16.23
2022-08-26T03:21:15.814Z,16.20
2022-08-26T03:22:20.131Z,16.20
2022-08-26T03:23:25.268Z,16.19
2022-08-26T03:24:27.223Z,16.11
2022-08-26T03:25:33.478Z,16.16
2022-08-26T03:26:35.456Z,16.13
2022-08-26T03:27:41.202Z,16.12
2022-08-26T03:28:59.681Z,16.09
2022-08-26T03:30:16.568Z,16.08
2022-08-26T03:31:21.019Z,16.05
2022-08-26T03:32:26.968Z,16.03
2022-08-26T03:33:31.662Z,16.00
2022-08-26T03:34:33.652Z,15.99
2022-08-26T03:35:38.076Z,15.96
2022-08-26T03:36:43.957Z,15.94
2022-08-26T03:37:45.987Z,15.93
2022-08-26T03:38:50.820Z,15.92
2022-08-26T03:39:52.725Z,15.90
2022-08-26T03:40:57.190Z,15.88
2022-08-26T03:41:59.095Z,15.87
2022-08-26T03:43:03.941Z,15.87
2022-08-26T03:44:06.402Z,15.87
2022-08-26T03:45:12.089Z,15.91
2022-08-26T03:46:14.258Z,15.91
2022-08-26T03:47:18.719Z,15.93
2022-08-26T03:48:20.515Z,15.94
2022-08-26T03:49:25.583Z,15.98
2022-08-26T03:50:31.180Z,16.01
2022-08-26T03:51:39.551Z,16.03
2022-08-26T03:52:44.274Z,16.06
2022-08-26T03:53:49.230Z,16.09
2022-08-26T03:54:51.048Z,16.12
2022-08-26T03:55:55.815Z,16.15
2022-08-26T03:56:57.621Z,16.19
2022-08-26T03:58:02.492Z,16.21
2022-08-26T03:59:04.903Z,16.27
2022-08-26T04:00:15.330Z,16.33
2022-08-26T04:01:20.406Z,16.37
2022-08-26T04:02:25.656Z,16.42
2022-08-26T04:03:42.894Z,16.47
2022-08-26T04:04:47.292Z,16.54
2022-08-26T04:05:51.813Z,16.61
2022-08-26T04:06:59.102Z,16.67
2022-08-26T04:08:00.884Z,16.73
2022-08-26T04:09:07.165Z,16.81
2022-08-26T04:10:09.324Z,17.03
2022-08-26T04:11:19.017Z,17.38
2022-08-26T04:12:21.097Z,17.81
2022-08-26T04:13:25.519Z,18.11
2022-08-26T04:14:31.282Z,18.39
2022-08-26T04:15:34.366Z,18.66
2022-08-26T04:16:39.014Z,18.91
2022-08-26T04:17:40.991Z,19.17
2022-08-26T04:18:46.664Z,19.39
2022-08-26T04:19:51.371Z,19.64
2022-08-26T04:20:53.186Z,19.90
2022-08-26T04:21:57.691Z,20.16
2022-08-26T04:22:59.524Z,20.43
2022-08-26T04:24:03.984Z,20.68
2022-08-26T04:25:06.795Z,20.94
2022-08-26T04:26:11.311Z,21.16
2022-08-26T04:27:13.102Z,21.40
2022-08-26T04:28:17.562Z,21.62
2022-08-26T04:29:20.855Z,21.86
2022-08-26T04:30:25.467Z,22.00
2022-08-26T04:31:27.451Z,21.88
2022-08-26T04:32:35.316Z,21.59
2022-08-26T04:33:41.824Z,21.32
2022-08-26T04:34:46.428Z,21.27
2022-08-26T04:35:48.490Z,21.28
2022-08-26T04:36:53.299Z,21.36
2022-08-26T04:37:55.527Z,21.44
2022-08-26T04:38:59.975Z,21.53
2022-08-26T04:40:04.465Z,21.38
2022-08-26T04:41:14.942Z,21.17
2022-08-26T04:42:23.319Z,21.13
2022-08-26T04:43:30.704Z,21.03
2022-08-26T04:44:35.098Z,20.89
2022-08-26T04:45:37.532Z,20.79
2022-08-26T04:46:43.875Z,20.72
2022-08-26T04:47:48.710Z,20.68
2022-08-26T04:48:51.903Z,20.63
2022-08-26T04:50:00.216Z,20.62
2022-08-26T04:51:04.671Z,20.59
2022-08-26T04:52:09.849Z,20.60
2022-08-26T04:53:12.214Z,20.63
2022-08-26T04:54:16.626Z,20.65
2022-08-26T04:55:20.414Z,20.66
2022-08-26T04:56:30.486Z,20.66
2022-08-26T04:57:33.774Z,20.67
2022-08-26T04:58:39.281Z,20.64
2022-08-26T04:59:41.130Z,20.63
2022-08-26T05:00:49.210Z,20.64
2022-08-26T05:01:51.738Z,20.66
2022-08-26T05:02:56.188Z,20.70
2022-08-26T05:03:58.400Z,20.72
2022-08-26T05:05:02.913Z,20.70
2022-08-26T05:06:05.440Z,20.82
2022-08-26T05:07:10.566Z,20.87
2022-08-26T05:08:13.123Z,20.98
2022-08-26T05:09:18.595Z,21.06
2022-08-26T05:10:20.515Z,21.12
2022-08-26T05:11:25.001Z,21.15
2022-08-26T05:12:27.891Z,21.19
2022-08-26T05:13:32.334Z,21.24
2022-08-26T05:14:36.170Z,21.31
2022-08-26T05:15:41.441Z,21.38
2022-08-26T05:16:45.867Z,21.41
2022-08-26T05:17:50.659Z,21.46
2022-08-26T05:18:56.099Z,21.52
2022-08-26T05:19:58.442Z,21.56
2022-08-26T05:21:03.342Z,21.61
2022-08-26T05:22:06.553Z,21.66
2022-08-26T05:23:10.991Z,21.67
2022-08-26T05:24:37.495Z,21.70
2022-08-26T05:25:43.513Z,21.75
2022-08-26T05:26:48.406Z,21.78
2022-08-26T05:27:50.359Z,21.81
2022-08-26T05:28:55.337Z,21.81
2022-08-26T05:29:57.635Z,21.84
2022-08-26T05:31:02.181Z,21.85
2022-08-26T05:32:04.809Z,21.88
2022-08-26T05:33:10.147Z,21.90
2022-08-26T05:34:14.734Z,21.92
2022-08-26T05:35:17.710Z,21.96
2022-08-26T05:36:23.152Z,21.97
2022-08-26T05:37:25.008Z,22.00
2022-08-26T05:38:30.238Z,22.01
2022-08-26T05:39:32.827Z,22.04
2022-08-26T05:40:38.725Z,22.07
2022-08-26T05:41:44.763Z,22.09
2022-08-26T05:42:47.561Z,22.10
2022-08-26T05:43:52.288Z,22.12
2022-08-26T05:44:56.166Z,22.13
2022-08-26T05:46:07.801Z,22.17
2022-08-26T05:47:12.557Z,22.16
2022-08-26T05:48:15.275Z,22.18
2022-08-26T05:49:20.567Z,22.19
2022-08-26T05:50:28.021Z,22.19
2022-08-26T05:51:33.008Z,22.20
2022-08-26T05:52:34.859Z,22.20
2022-08-26T05:53:40.202Z,22.21
2022-08-26T05:54:48.238Z,22.21
2022-08-26T05:55:51.462Z,22.22
2022-08-26T05:56:55.909Z,22.18
2022-08-26T05:57:57.719Z,22.19
2022-08-26T05:59:03.730Z,22.17
2022-08-26T06:00:06.740Z,22.17
2022-08-26T06:01:17.818Z,22.19
2022-08-26T06:02:20.018Z,22.23
2022-08-26T06:03:24.933Z,22.26
2022-08-26T06:04:29.526Z,22.25
2022-08-26T06:05:35.380Z,22.23
2022-08-26T06:06:43.039Z,22.21
2022-08-26T06:08:01.875Z,22.15
2022-08-26T06:09:07.219Z,22.22
2022-08-26T06:10:32.659Z,22.26
2022-08-26T06:11:37.460Z,22.31
2022-08-26T06:12:39.423Z,22.36
2022-08-26T06:13:44.737Z,22.37
2022-08-26T06:14:46.680Z,22.41
2022-08-26T06:15:56.164Z,22.46
2022-08-26T06:17:00.900Z,22.52
2022-08-26T06:18:03.087Z,22.53
2022-08-26T06:19:10.793Z,22.60
2022-08-26T06:20:13.136Z,22.63
2022-08-26T06:21:18.826Z,22.70
2022-08-26T06:22:35.926Z,22.71
2022-08-26T06:23:53.061Z,22.71
2022-08-26T06:25:10.137Z,22.78
2022-08-26T06:26:14.903Z,22.86
2022-08-26T06:27:16.739Z,22.93
2022-08-26T06:28:21.879Z,23.02
2022-08-26T06:29:25.497Z,23.11
2022-08-26T06:30:29.889Z,23.12
2022-08-26T06:31:32.394Z,23.18
2022-08-26T06:32:37.423Z,23.22
2022-08-26T06:33:39.251Z,23.26
2022-08-26T06:34:44.476Z,23.37
2022-08-26T06:35:47.078Z,23.46
2022-08-26T06:36:53.686Z,23.48
2022-08-26T06:37:56.191Z,23.53
2022-08-26T06:39:02.653Z,23.63
2022-08-26T06:40:04.980Z,23.71
2022-08-26T06:41:12.066Z,23.79
2022-08-26T06:42:13.907Z,23.89
2022-08-26T06:43:20.088Z,23.92
2022-08-26T06:44:23.359Z,24.00
2022-08-26T06:45:27.869Z,24.08
2022-08-26T06:46:30.581Z,24.13
2022-08-26T06:47:35.033Z,24.14
2022-08-26T06:48:37.549Z,24.19
2022-08-26T06:49:41.959Z,24.20
2022-08-26T06:50:49.972Z,24.14
2022-08-26T06:51:51.827Z,24.27
2022-08-26T06:52:56.282Z,24.37
2022-08-26T06:54:02.252Z,24.42
2022-08-26T06:55:05.627Z,24.48
2022-08-26T06:56:11.993Z,24.45
2022-08-26T06:57:14.312Z,24.48
2022-08-26T06:58:21.143Z,24.57
2022-08-26T06:59:24.066Z,24.62
2022-08-26T07:00:28.520Z,24.63
2022-08-26T07:01:31.790Z,24.67
2022-08-26T07:02:36.833Z,24.68
2022-08-26T07:03:39.744Z,24.76
2022-08-26T07:04:44.522Z,24.80
2022-08-26T07:05:52.365Z,24.81
2022-08-26T07:06:55.503Z,24.81
2022-08-26T07:08:00.367Z,24.87
2022-08-26T07:09:04.263Z,24.90
2022-08-26T07:10:09.327Z,24.98
2022-08-26T07:11:12.015Z,25.06
2022-08-26T07:12:17.689Z,25.11
2022-08-26T07:13:30.563Z,25.16
2022-08-26T07:14:36.550Z,25.18
2022-08-26T07:15:44.683Z,25.18
2022-08-26T07:16:49.599Z,25.25
2022-08-26T07:17:51.414Z,25.31
2022-08-26T07:18:56.172Z,25.38
2022-08-26T07:20:03.205Z,25.42
2022-08-26T07:21:07.627Z,25.36
2022-08-26T07:22:12.134Z,25.46
2022-08-26T07:23:16.632Z,25.43
2022-08-26T07:24:19.140Z,25.49
2022-08-26T07:25:25.428Z,25.60
2022-08-26T07:26:28.646Z,25.66
2022-08-26T07:27:33.813Z,25.69
2022-08-26T07:28:35.907Z,25.77
2022-08-26T07:29:42.425Z,25.83
2022-08-26T07:30:44.374Z,25.87
2022-08-26T07:31:48.789Z,25.80
2022-08-26T07:32:50.628Z,25.93
2022-08-26T07:33:55.796Z,26.04
2022-08-26T07:35:01.002Z,26.04
2022-08-26T07:36:04.167Z,26.08
2022-08-26T07:37:09.079Z,26.10
2022-08-26T07:38:11.235Z,26.17
2022-08-26T07:39:17.297Z,26.26
2022-08-26T07:40:19.287Z,26.35
2022-08-26T07:41:25.566Z,26.42
2022-08-26T07:42:30.026Z,26.47
2022-08-26T07:43:32.238Z,26.54
2022-08-26T07:44:36.635Z,26.55
2022-08-26T07:45:41.038Z,26.62
2022-08-26T07:46:44.149Z,26.66
2022-08-26T07:47:48.752Z,26.70
2022-08-26T07:48:53.509Z,26.76
2022-08-26T07:49:58.437Z,26.84
2022-08-26T07:51:00.405Z,26.89
2022-08-26T07:52:05.654Z,26.88
2022-08-26T07:53:08.899Z,26.94
2022-08-26T07:54:15.401Z,26.98
2022-08-26T07:55:20.251Z,27.04
2022-08-26T07:56:23.348Z,27.02
2022-08-26T07:57:28.361Z,27.09
2022-08-26T07:58:31.128Z,27.19
2022-08-26T07:59:35.523Z,27.20
2022-08-26T08:00:37.471Z,27.26
2022-08-26T08:01:44.782Z,27.29
2022-08-26T08:02:47.087Z,27.41
2022-08-26T08:03:51.932Z,27.43
2022-08-26T08:04:54.702Z,27.50
2022-08-26T08:05:59.871Z,27.49
2022-08-26T08:07:01.940Z,27.55
2022-08-26T08:08:19.684Z,27.69
2022-08-26T08:09:31.862Z,27.79
2022-08-26T08:10:34.326Z,27.90
2022-08-26T08:11:41.694Z,27.94
2022-08-26T08:12:47.611Z,28.03
2022-08-26T08:13:50.089Z,28.16
2022-08-26T08:15:01.150Z,28.20
2022-08-26T08:16:05.755Z,28.30
2022-08-26T08:17:07.781Z,28.43
2022-08-26T08:18:15.798Z,28.43
2022-08-26T08:19:20.478Z,28.40
2022-08-26T08:20:23.810Z,28.46
2022-08-26T08:21:29.025Z,28.54
2022-08-26T08:22:32.549Z,28.62
2022-08-26T08:23:37.341Z,28.75
2022-08-26T08:24:40.042Z,28.84
2022-08-26T08:25:44.780Z,28.87
2022-08-26T08:26:47.290Z,28.88
2022-08-26T08:27:52.112Z,28.86
2022-08-26T08:28:54.724Z,28.89
2022-08-26T08:29:59.246Z,28.84
2022-08-26T08:31:02.291Z,28.88
2022-08-26T08:32:11.419Z,28.88
2022-08-26T08:33:13.477Z,28.87
2022-08-26T08:34:18.364Z,28.96
2022-08-26T08:35:21.603Z,29.00
2022-08-26T08:36:26.054Z,29.02
2022-08-26T08:37:37.672Z,29.05
2022-08-26T08:38:42.355Z,28.98
2022-08-26T08:39:45.547Z,29.05
2022-08-26T08:40:49.949Z,29.08
2022-08-26T08:41:54.811Z,29.12
2022-08-26T08:43:00.623Z,29.14
2022-08-26T08:44:02.645Z,29.19
2022-08-26T08:45:15.424Z,29.18
2022-08-26T08:46:19.577Z,29.27
2022-08-26T08:47:29.136Z,29.32
2022-08-26T08:48:34.748Z,29.40
2022-08-26T08:49:36.575Z,29.43
2022-08-26T08:50:48.076Z,29.47
2022-08-26T08:51:54.419Z,29.51
2022-08-26T08:53:11.176Z,29.53
2022-08-26T08:54:13.068Z,29.60
2022-08-26T08:55:18.327Z,29.69
2022-08-26T08:56:23.686Z,29.80
2022-08-26T08:57:41.107Z,29.80
2022-08-26T08:59:03.505Z,29.85
2022-08-26T09:00:09.235Z,29.83
2022-08-26T09:01:16.616Z,29.90
2022-08-26T09:02:21.463Z,29.88
2022-08-26T09:03:44.715Z,29.95
2022-08-26T09:04:51.740Z,30.01
2022-08-26T09:05:58.886Z,29.97
2022-08-26T09:07:02.059Z,30.01
2022-08-26T09:08:20.780Z,29.99
2022-08-26T09:09:24.102Z,30.03
2022-08-26T09:10:31.518Z,30.12
2022-08-26T09:11:35.894Z,30.16
2022-08-26T09:12:38.012Z,30.22
2022-08-26T09:13:42.399Z,30.26
2022-08-26T09:14:44.719Z,30.28
2022-08-26T09:16:08.328Z,30.32
2022-08-26T09:17:17.526Z,30.33
2022-08-26T09:18:57.705Z,30.36
2022-08-26T09:20:05.916Z,30.44
2022-08-26T09:21:11.746Z,30.55
2022-08-26T09:22:27.835Z,30.65
2022-08-26T09:23:32.692Z,30.72
2022-08-26T09:24:42.030Z,30.76
2022-08-26T09:27:37.604Z,30.78
2022-08-26T09:28:40.415Z,30.83
2022-08-26T09:29:50.377Z,30.84
2022-08-26T09:31:08.026Z,30.88
2022-08-26T09:32:16.139Z,30.94
2022-08-26T09:33:21.231Z,31.00
2022-08-26T09:34:30.150Z,31.10
2022-08-26T09:35:33.339Z,31.20
2022-08-26T09:36:39.655Z,31.28
2022-08-26T09:39:26.734Z,31.23
2022-08-26T09:40:35.505Z,31.34
2022-08-26T09:41:38.751Z,31.46
2022-08-26T09:42:43.250Z,31.45
2022-08-26T09:43:51.909Z,31.43
2022-08-26T09:45:03.861Z,31.60
2022-08-26T09:46:21.323Z,31.62
2022-08-26T09:47:48.333Z,31.68
2022-08-26T09:48:53.045Z,31.72
2022-08-26T09:50:20.722Z,31.75
2022-08-26T09:51:23.211Z,31.80
2022-08-26T09:52:27.957Z,31.84
2022-08-26T09:53:32.460Z,31.83
2022-08-26T09:54:38.098Z,31.88
2022-08-26T09:55:44.068Z,31.92
2022-08-26T09:56:46.578Z,31.94
2022-08-26T09:57:55.010Z,31.95
2022-08-26T09:58:59.738Z,31.94
2022-08-26T10:00:02.590Z,31.79
2022-08-26T10:01:27.337Z,31.77
2022-08-26T10:02:32.029Z,31.70
2022-08-26T10:03:37.794Z,31.72
2022-08-26T10:04:39.694Z,31.69
2022-08-26T10:05:47.673Z,31.51
2022-08-26T10:07:08.329Z,31.43
2022-08-26T10:08:20.719Z,31.33
2022-08-26T10:09:28.059Z,31.29
2022-08-26T10:10:32.832Z,31.30
2022-08-26T10:11:41.305Z,31.29
2022-08-26T10:12:46.575Z,31.36
2022-08-26T10:13:54.033Z,31.35
2022-08-26T10:14:56.943Z,31.37
2022-08-26T10:16:03.884Z,31.42
2022-08-26T10:17:07.523Z,31.39
2022-08-26T10:18:18.751Z,31.37
2022-08-26T10:19:21.705Z,31.32
2022-08-26T10:20:27.457Z,31.28
2022-08-26T10:21:33.279Z,31.32
2022-08-26T10:22:52.833Z,31.33
2022-08-26T10:23:56.200Z,31.31
2022-08-26T10:25:01.036Z,31.43
2022-08-26T10:26:07.097Z,31.46
2022-08-26T10:27:34.063Z,31.50
2022-08-26T10:28:52.987Z,31.59
2022-08-26T10:29:58.205Z,31.64
2022-08-26T10:31:01.695Z,31.72
2022-08-26T10:32:13.819Z,31.82
2022-08-26T10:33:18.097Z,31.76
2022-08-26T10:34:22.771Z,31.84
2022-08-26T10:35:27.079Z,31.94
2022-08-26T10:37:10.812Z,31.94
2022-08-26T10:38:12.191Z,32.13
2022-08-26T10:39:15.344Z,32.18
2022-08-26T10:40:27.838Z,32.31
2022-08-26T10:41:32.339Z,32.38
2022-08-26T10:42:38.799Z,32.49
2022-08-26T10:43:41.005Z,32.63
2022-08-26T10:44:45.543Z,32.69
2022-08-26T10:45:57.309Z,32.68
2022-08-26T10:47:00.521Z,32.67
2022-08-26T10:48:11.000Z,32.67
2022-08-26T10:49:17.371Z,32.70
2022-08-26T10:50:19.583Z,32.78
2022-08-26T10:51:27.617Z,32.81
2022-08-26T10:52:50.918Z,32.87
2022-08-26T10:53:58.018Z,32.86
2022-08-26T10:55:03.104Z,32.87
2022-08-26T10:56:18.757Z,32.93
2022-08-26T10:57:23.726Z,32.95
2022-08-26T10:58:26.171Z,32.95
2022-08-26T10:59:49.995Z,32.98
2022-08-26T11:01:11.840Z,32.95
2022-08-26T11:02:25.000Z,32.95
2022-08-26T11:03:41.646Z,32.78
2022-08-26T11:04:48.484Z,32.88
2022-08-26T11:06:11.798Z,32.97
2022-08-26T11:07:35.467Z,32.92
2022-08-26T11:08:39.907Z,32.92
2022-08-26T11:09:45.546Z,32.92
2022-08-26T11:11:00.775Z,32.84
2022-08-26T11:12:10.312Z,32.83
2022-08-26T11:13:15.034Z,32.85
2022-08-26T11:14:29.012Z,32.79
2022-08-26T11:15:34.175Z,32.80
2022-08-26T11:16:36.185Z,32.81
2022-08-26T11:17:47.423Z,32.77
2022-08-26T11:18:55.897Z,32.73
2022-08-26T11:20:01.537Z,32.53
2022-08-26T11:21:18.730Z,32.47
2022-08-26T11:22:33.050Z,32.47
2022-08-26T11:23:38.990Z,32.48
2022-08-26T11:24:45.779Z,32.44
2022-08-26T11:25:59.024Z,32.44
2022-08-26T11:27:01.663Z,32.45
2022-08-26T11:28:06.981Z,32.41
2022-08-26T11:29:13.264Z,32.45
2022-08-26T11:30:19.570Z,32.48
2022-08-26T11:31:27.114Z,32.54
2022-08-26T11:32:35.304Z,32.54
2022-08-26T11:33:48.820Z,32.61
2022-08-26T11:35:00.474Z,32.48
2022-08-26T11:36:11.961Z,32.57
2022-08-26T11:37:16.984Z,32.64
2022-08-26T11:38:20.938Z,32.73
2022-08-26T11:39:36.634Z,32.70
2022-08-26T11:40:40.548Z,32.73
2022-08-26T11:41:52.904Z,32.68
2022-08-26T11:43:01.025Z,32.68
2022-08-26T11:44:07.181Z,32.64
2022-08-26T11:45:18.060Z,32.58
2022-08-26T11:46:27.828Z,32.48
2022-08-26T11:47:33.932Z,32.45
2022-08-26T11:48:40.559Z,32.36
2022-08-26T11:49:45.212Z,32.45
2022-08-26T11:50:54.023Z,32.45
2022-08-26T11:52:20.813Z,32.47
2022-08-26T11:53:23.371Z,32.44
2022-08-26T11:54:35.693Z,32.45
2022-08-26T11:55:41.884Z,32.41
2022-08-26T11:56:47.737Z,32.43
2022-08-26T11:57:52.795Z,32.53
2022-08-26T11:58:56.795Z,32.50
2022-08-26T12:00:01.448Z,32.48
2022-08-26T12:01:09.838Z,32.62
2022-08-26T12:02:18.038Z,32.70
2022-08-26T12:03:27.768Z,32.73
2022-08-26T12:04:35.926Z,32.70
2022-08-26T12:05:42.882Z,32.54
2022-08-26T12:06:51.051Z,32.54
2022-08-26T12:07:55.539Z,32.65
2022-08-26T12:08:58.817Z,32.64
2022-08-26T12:10:04.290Z,32.75
2022-08-26T12:11:09.657Z,32.87
2022-08-26T12:12:14.188Z,32.97
2022-08-26T12:13:26.649Z,33.05
2022-08-26T12:14:28.769Z,33.18
2022-08-26T12:15:33.775Z,33.29
2022-08-26T12:16:37.102Z,33.40
2022-08-26T12:17:42.224Z,33.51
2022-08-26T12:18:44.826Z,33.62
2022-08-26T12:19:49.440Z,33.72
2022-08-26T12:20:54.305Z,33.80
2022-08-26T12:22:04.333Z,33.78
2022-08-26T12:23:06.205Z,33.71
2022-08-26T12:24:11.187Z,33.83
2022-08-26T12:25:15.490Z,33.80
2022-08-26T12:26:26.662Z,33.83
2022-08-26T12:27:31.265Z,33.77
2022-08-26T12:28:36.001Z,33.82
2022-08-26T12:29:37.823Z,33.74
2022-08-26T12:30:44.362Z,33.83
2022-08-26T12:31:46.534Z,33.83
2022-08-26T12:32:57.792Z,33.90
2022-08-26T12:34:04.212Z,33.95
2022-08-26T12:35:16.593Z,33.97
2022-08-26T12:36:23.131Z,33.92
2022-08-26T12:37:36.941Z,33.93
2022-08-26T12:38:41.362Z,34.05
2022-08-26T12:39:47.980Z,34.08
2022-08-26T12:40:50.496Z,34.09
2022-08-26T12:41:59.173Z,34.11
2022-08-26T12:43:02.157Z,34.08
2022-08-26T12:44:06.658Z,34.06
2022-08-26T12:45:11.353Z,34.00
2022-08-26T12:46:15.430Z,34.06
2022-08-26T12:47:40.096Z,34.18
2022-08-26T12:48:50.659Z,34.23
2022-08-26T12:49:59.763Z,34.17
2022-08-26T12:51:04.607Z,34.19
2022-08-26T12:52:07.215Z,34.23
2022-08-26T12:53:11.804Z,34.26
2022-08-26T12:54:14.412Z,34.34
2022-08-26T12:55:24.629Z,34.40
2022-08-26T12:56:29.252Z,34.44
2022-08-26T12:57:35.234Z,34.42
2022-08-26T12:58:40.517Z,34.35
2022-08-26T12:59:43.191Z,34.31
2022-08-26T13:00:48.703Z,34.32
2022-08-26T13:01:53.727Z,34.32
2022-08-26T13:02:55.707Z,34.25
2022-08-26T13:04:00.258Z,34.08
2022-08-26T13:05:05.641Z,34.12
2022-08-26T13:06:25.945Z,34.07
2022-08-26T13:07:27.893Z,33.93
2022-08-26T13:08:32.550Z,33.82
2022-08-26T13:09:34.630Z,33.83
2022-08-26T13:10:40.007Z,33.86
2022-08-26T13:11:45.010Z,33.85
2022-08-26T13:12:47.784Z,33.93
2022-08-26T13:13:54.335Z,33.89
2022-08-26T13:14:59.352Z,34.02
2022-08-26T13:16:01.335Z,34.12
2022-08-26T13:17:05.875Z,34.21
2022-08-26T13:18:08.087Z,34.28
2022-08-26T13:19:19.928Z,34.26
2022-08-26T13:20:21.838Z,34.32
2022-08-26T13:21:27.588Z,34.30
2022-08-26T13:22:29.651Z,34.26
2022-08-26T13:23:34.138Z,34.33
2022-08-26T13:24:37.042Z,34.34
2022-08-26T13:25:41.524Z,34.44
2022-08-26T13:26:45.161Z,34.47
2022-08-26T13:27:49.750Z,34.49
2022-08-26T13:29:01.346Z,34.55
2022-08-26T13:30:04.056Z,34.58
2022-08-26T13:31:09.010Z,34.49
2022-08-26T13:32:11.182Z,34.49
2022-08-26T13:33:16.851Z,34.41
2022-08-26T13:34:23.493Z,34.38
2022-08-26T13:35:25.636Z,34.38
2022-08-26T13:36:30.094Z,34.37
2022-08-26T13:37:35.037Z,34.32
2022-08-26T13:38:40.094Z,34.29
2022-08-26T13:39:44.623Z,34.21
2022-08-26T13:40:47.563Z,34.14
2022-08-26T13:41:52.041Z,34.16
2022-08-26T13:42:56.553Z,34.15
2022-08-26T13:43:59.859Z,34.17
2022-08-26T13:45:04.465Z,34.19
2022-08-26T13:46:10.753Z,34.24
2022-08-26T13:47:13.238Z,34.24
2022-08-26T13:48:21.583Z,34.25
2022-08-26T13:49:27.845Z,34.26
2022-08-26T13:50:32.316Z,34.30
2022-08-26T13:51:34.619Z,34.33
2022-08-26T13:52:39.057Z,34.35
2022-08-26T13:53:41.602Z,34.37
2022-08-26T13:54:46.593Z,34.38
2022-08-26T13:55:54.957Z,34.40
2022-08-26T13:57:07.942Z,34.40
2022-08-26T13:58:14.436Z,34.39
2022-08-26T13:59:16.349Z,34.32
2022-08-26T14:00:20.978Z,34.26
2022-08-26T14:01:25.581Z,34.15
2022-08-26T14:02:27.747Z,34.08
2022-08-26T14:03:32.987Z,33.99
2022-08-26T14:04:34.908Z,33.90
2022-08-26T14:05:39.366Z,33.83
2022-08-26T14:06:41.263Z,33.74
2022-08-26T14:07:46.039Z,33.67
2022-08-26T14:08:48.434Z,33.59
2022-08-26T14:09:52.927Z,33.51
2022-08-26T14:10:55.349Z,33.38
2022-08-26T14:12:02.672Z,33.32
2022-08-26T14:13:04.994Z,33.24